createdAt,value
2018-12-22T00:01:13.835Z,38.00
2018-12-22T00:03:41.342Z,40.93
2018-12-22T00:06:08.847Z,34.00
2018-12-22T00:08:36.397Z,32.77
2018-12-22T00:11:03.888Z,38.33
2018-12-22T00:13:31.377Z,35.30
2018-12-22T00:15:58.875Z,33.90
2018-12-22T00:18:26.408Z,35.87
2018-12-22T00:20:53.891Z,35.40
2018-12-22T00:23:21.371Z,34.37
2018-12-22T00:25:48.884Z,33.70
2018-12-22T00:28:22.193Z,32.30
2018-12-22T00:30:45.913Z,42.80
2018-12-22T00:33:13.415Z,32.57
2018-12-22T00:35:41.499Z,32.53
2018-12-22T00:38:08.980Z,36.37
2018-12-22T00:40:36.471Z,34.17
2018-12-22T00:43:03.964Z,34.37
2018-12-22T00:45:31.487Z,35.07
2018-12-22T00:47:58.986Z,38.70
2018-12-22T00:50:26.500Z,28.67
2018-12-22T00:52:54.048Z,31.90
2018-12-22T00:55:21.531Z,28.20
2018-12-22T00:57:49.063Z,27.20
2018-12-22T01:00:16.554Z,27.17
2018-12-22T01:02:44.036Z,22.70
2018-12-22T01:05:24.938Z,26.70
2018-12-22T01:07:52.452Z,21.47
2018-12-22T01:10:19.959Z,25.23
2018-12-22T01:12:47.476Z,24.80
2018-12-22T01:15:14.964Z,25.17
2018-12-22T01:17:42.463Z,27.80
2018-12-22T01:20:09.964Z,23.10
2018-12-22T01:22:37.583Z,25.83
2018-12-22T01:25:06.041Z,31.37
2018-12-22T01:27:33.553Z,36.03
2018-12-22T01:30:01.141Z,27.80
2018-12-22T01:32:28.639Z,27.37
2018-12-22T01:34:56.134Z,31.47
2018-12-22T01:37:23.636Z,37.57
2018-12-22T01:39:51.154Z,33.37
2018-12-22T01:42:18.676Z,33.70
2018-12-22T01:44:46.197Z,31.10
2018-12-22T01:47:13.699Z,31.90
2018-12-22T01:49:41.275Z,28.80
2018-12-22T01:52:08.746Z,28.80
2018-12-22T01:54:36.255Z,49.17
2018-12-22T01:57:03.743Z,35.13
2018-12-22T01:59:31.265Z,39.83
2018-12-22T02:01:58.784Z,30.30
2018-12-22T02:04:26.279Z,38.47
2018-12-22T02:06:53.839Z,31.83
2018-12-22T02:09:21.336Z,36.23
2018-12-22T02:11:48.814Z,39.77
2018-12-22T02:14:16.324Z,29.63
2018-12-22T02:16:44.739Z,36.97
2018-12-22T02:19:12.231Z,31.53
2018-12-22T02:21:39.713Z,33.60
2018-12-22T02:24:07.215Z,36.60
2018-12-22T02:26:35.415Z,40.70
2018-12-22T02:29:02.920Z,34.60
2018-12-22T02:31:30.542Z,35.60
2018-12-22T02:33:58.050Z,26.63
2018-12-22T02:36:25.540Z,44.63
2018-12-22T02:38:53.043Z,38.07
2018-12-22T02:41:20.551Z,37.97
2018-12-22T02:43:48.049Z,34.33
2018-12-22T02:46:15.548Z,29.50
2018-12-22T02:48:43.064Z,34.67
2018-12-22T02:51:10.583Z,35.97
2018-12-22T02:53:38.124Z,31.93
2018-12-22T02:56:05.631Z,32.60
2018-12-22T02:58:33.147Z,29.77
2018-12-22T03:01:00.638Z,26.30
2018-12-22T03:03:28.573Z,28.97
2018-12-22T03:05:56.071Z,30.43
2018-12-22T03:08:23.567Z,21.90
2018-12-22T03:10:51.078Z,12.83
2018-12-22T03:13:18.770Z,19.37
2018-12-22T03:15:46.363Z,17.77
2018-12-22T03:18:14.298Z,17.30
2018-12-22T03:20:41.805Z,17.93
2018-12-22T03:23:09.378Z,16.33
2018-12-22T03:25:36.878Z,22.00
2018-12-22T03:30:44.416Z,27.47
2018-12-22T03:33:11.975Z,24.83
2018-12-22T03:35:39.501Z,27.53
2018-12-22T03:38:07.003Z,20.57
2018-12-22T03:40:34.687Z,18.93
2018-12-22T03:43:02.379Z,16.83
2018-12-22T03:45:29.966Z,19.23
2018-12-22T03:47:57.537Z,18.73
2018-12-22T03:50:25.430Z,17.77
2018-12-22T03:52:53.722Z,17.63
2018-12-22T03:55:21.290Z,23.73
2018-12-22T03:57:48.839Z,20.43
2018-12-22T04:00:16.336Z,20.90
2018-12-22T04:02:43.949Z,18.20
2018-12-22T04:05:11.522Z,18.50
2018-12-22T04:07:39.174Z,16.97
2018-12-22T04:10:07.283Z,16.23
2018-12-22T04:12:47.332Z,11.67
2018-12-22T04:15:15.062Z,12.07
2018-12-22T04:17:43.006Z,8.77
2018-12-22T04:20:10.697Z,13.87
2018-12-22T04:22:38.282Z,13.13
2018-12-22T04:25:05.833Z,12.50
2018-12-22T04:27:33.381Z,11.67
2018-12-22T04:30:00.976Z,13.73
2018-12-22T04:32:28.605Z,12.20
2018-12-22T04:34:56.235Z,12.00
2018-12-22T04:37:23.793Z,14.90
2018-12-22T04:39:51.335Z,14.00
2018-12-22T04:42:18.825Z,16.07
2018-12-22T04:44:46.308Z,15.90
2018-12-22T04:47:13.834Z,12.80
2018-12-22T04:49:41.380Z,9.17
2018-12-22T04:52:08.867Z,10.07
2018-12-22T04:54:36.389Z,14.10
2018-12-22T04:57:05.358Z,15.43
2018-12-22T04:59:32.862Z,13.73
2018-12-22T05:02:00.347Z,13.67
2018-12-22T05:04:27.845Z,13.17
2018-12-22T05:06:55.351Z,9.30
2018-12-22T05:09:22.865Z,10.13
2018-12-22T05:11:50.368Z,10.23
2018-12-22T05:14:18.456Z,9.00
2018-12-22T05:16:45.934Z,10.10
2018-12-22T05:19:13.447Z,12.23
2018-12-22T05:21:40.948Z,10.20
2018-12-22T05:24:08.431Z,8.83
2018-12-22T05:26:35.944Z,11.80
2018-12-22T05:29:03.447Z,8.83
2018-12-22T05:31:30.971Z,6.80
2018-12-22T05:33:58.460Z,7.73
2018-12-22T05:36:25.959Z,7.57
2018-12-22T05:38:53.613Z,5.70
2018-12-22T05:41:21.143Z,4.20
2018-12-22T05:43:48.629Z,4.60
2018-12-22T05:46:16.537Z,10.50
2018-12-22T05:48:44.019Z,5.23
2018-12-22T05:51:11.568Z,3.03
2018-12-22T05:53:39.070Z,3.93
2018-12-22T05:56:06.538Z,3.60
2018-12-22T05:58:34.040Z,4.97
2018-12-22T06:01:01.581Z,11.37
2018-12-22T06:03:29.151Z,6.30
2018-12-22T06:05:56.668Z,5.63
2018-12-22T06:08:24.156Z,6.73
2018-12-22T06:10:51.644Z,6.30
2018-12-22T06:13:19.145Z,6.30
2018-12-22T06:15:46.966Z,6.47
2018-12-22T06:18:14.460Z,5.20
2018-12-22T06:20:41.954Z,6.70
2018-12-22T06:23:09.476Z,5.83
2018-12-22T06:25:37.315Z,4.43
2018-12-22T06:28:04.811Z,2.33
2018-12-22T06:30:32.305Z,3.80
2018-12-22T06:32:59.799Z,7.40
2018-12-22T06:35:27.282Z,8.43
2018-12-22T06:37:54.778Z,7.93
2018-12-22T06:40:22.279Z,8.50
2018-12-22T06:42:49.810Z,9.70
2018-12-22T06:45:18.031Z,6.00
2018-12-22T06:47:53.623Z,10.23
2018-12-22T06:50:21.155Z,13.70
2018-12-22T06:52:48.648Z,6.20
2018-12-22T06:55:16.147Z,7.87
2018-12-22T06:57:44.494Z,6.47
2018-12-22T07:00:17.694Z,9.37
2018-12-22T07:02:43.131Z,8.60
2018-12-22T07:05:10.674Z,4.53
2018-12-22T07:07:38.153Z,10.07
2018-12-22T07:10:07.608Z,11.50
2018-12-22T07:12:35.783Z,10.47
2018-12-22T07:15:03.414Z,9.80
2018-12-22T07:17:30.926Z,9.87
2018-12-22T07:19:58.413Z,9.83
2018-12-22T07:22:26.796Z,10.10
2018-12-22T07:24:54.273Z,6.33
2018-12-22T07:27:21.782Z,8.07
2018-12-22T07:29:49.285Z,11.10
2018-12-22T07:32:16.808Z,7.53
2018-12-22T07:34:44.293Z,9.13
2018-12-22T07:37:11.773Z,6.97
2018-12-22T07:39:39.258Z,6.43
2018-12-22T07:42:06.770Z,7.63
2018-12-22T07:44:34.271Z,6.93
2018-12-22T07:47:01.773Z,7.27
2018-12-22T07:49:29.287Z,5.03
2018-12-22T07:51:56.780Z,9.57
2018-12-22T07:54:24.326Z,7.63
2018-12-22T07:56:51.822Z,9.03
2018-12-22T07:59:19.446Z,10.63
2018-12-22T08:01:46.944Z,9.23
2018-12-22T08:04:14.450Z,9.67
2018-12-22T08:06:41.943Z,6.63
2018-12-22T08:09:09.449Z,9.70
2018-12-22T08:11:36.973Z,10.30
2018-12-22T08:14:04.492Z,11.13
2018-12-22T08:16:32.655Z,8.83
2018-12-22T08:19:00.300Z,7.50
2018-12-22T08:21:27.777Z,8.90
2018-12-22T08:23:55.301Z,14.43
2018-12-22T08:26:22.840Z,10.97
2018-12-22T08:28:50.439Z,10.93
2018-12-22T08:31:17.920Z,6.23
2018-12-22T08:33:45.408Z,13.47
2018-12-22T08:36:12.917Z,12.73
2018-12-22T08:38:40.653Z,9.93
2018-12-22T08:41:08.133Z,7.73
2018-12-22T08:43:36.242Z,8.30
2018-12-22T08:46:03.726Z,8.13
2018-12-22T08:48:31.344Z,8.50
2018-12-22T08:50:58.832Z,11.03
2018-12-22T08:53:26.351Z,10.27
2018-12-22T08:55:53.848Z,7.20
2018-12-22T08:58:21.352Z,12.80
2018-12-22T09:00:52.360Z,11.47
2018-12-22T09:03:19.095Z,12.20
2018-12-22T09:05:46.597Z,10.57
2018-12-22T09:08:14.100Z,10.57
2018-12-22T09:10:41.652Z,11.27
2018-12-22T09:13:09.206Z,10.67
2018-12-22T09:15:36.823Z,10.37
2018-12-22T09:18:04.340Z,11.37
2018-12-22T09:20:31.907Z,9.30
2018-12-22T09:22:59.473Z,10.43
2018-12-22T09:25:27.057Z,14.27
2018-12-22T09:27:54.573Z,10.67
2018-12-22T09:30:22.075Z,7.97
2018-12-22T09:32:50.131Z,10.90
2018-12-22T09:35:17.632Z,5.77
2018-12-22T09:37:45.143Z,11.33
2018-12-22T09:40:12.753Z,9.70
2018-12-22T09:42:40.422Z,9.53
2018-12-22T09:45:08.034Z,8.63
2018-12-22T09:47:36.535Z,8.77
2018-12-22T09:50:07.658Z,8.97
2018-12-22T09:52:35.181Z,12.97
2018-12-22T09:55:02.741Z,8.57
2018-12-22T09:57:30.252Z,12.40
2018-12-22T09:59:57.776Z,12.87
2018-12-22T10:02:25.548Z,11.43
2018-12-22T10:04:53.051Z,11.07
2018-12-22T10:07:21.970Z,12.70
2018-12-22T10:09:49.477Z,15.10
2018-12-22T10:12:16.995Z,11.93
2018-12-22T10:14:45.422Z,14.57
2018-12-22T10:17:12.931Z,9.07
2018-12-22T10:19:40.484Z,12.70
2018-12-22T10:22:08.027Z,10.27
2018-12-22T10:24:35.511Z,8.53
2018-12-22T10:27:03.013Z,10.53
2018-12-22T10:29:31.388Z,11.07
2018-12-22T10:31:58.893Z,11.43
2018-12-22T10:34:26.580Z,8.97
2018-12-22T10:36:54.104Z,14.43
2018-12-22T10:39:21.613Z,11.43
2018-12-22T10:41:49.129Z,9.30
2018-12-22T10:44:16.635Z,15.60
2018-12-22T10:46:44.872Z,7.67
2018-12-22T10:49:12.391Z,7.17
2018-12-22T10:51:39.914Z,12.27
2018-12-22T10:54:07.433Z,13.40
2018-12-22T10:56:34.951Z,8.87
2018-12-22T10:59:02.475Z,7.17
2018-12-22T11:01:29.976Z,8.93
2018-12-22T11:03:57.535Z,7.30
2018-12-22T11:06:25.034Z,7.67
2018-12-22T11:08:52.550Z,7.87
2018-12-22T11:11:20.096Z,8.27
2018-12-22T11:13:47.643Z,9.73
2018-12-22T11:16:15.696Z,7.43
2018-12-22T11:18:43.261Z,14.27
2018-12-22T11:21:10.782Z,10.93
2018-12-22T11:23:38.317Z,13.37
2018-12-22T11:26:05.831Z,13.00
2018-12-22T11:28:33.307Z,8.73
2018-12-22T11:31:01.068Z,10.30
2018-12-22T11:33:28.560Z,12.00
2018-12-22T11:35:57.043Z,13.20
2018-12-22T11:38:24.537Z,8.37
2018-12-22T11:40:52.028Z,13.80
2018-12-22T11:43:19.570Z,8.87
2018-12-22T11:45:47.096Z,9.27
2018-12-22T11:48:15.935Z,10.63
2018-12-22T11:50:43.432Z,9.40
2018-12-22T11:53:10.939Z,12.17
2018-12-22T11:55:38.466Z,10.63
2018-12-22T11:58:05.980Z,9.37
2018-12-22T12:00:33.506Z,11.80
2018-12-22T12:03:00.991Z,14.37
2018-12-22T12:05:28.495Z,11.97
2018-12-22T12:07:56.230Z,8.67
2018-12-22T12:10:23.718Z,10.23
2018-12-22T12:12:51.227Z,17.03
2018-12-22T12:15:19.580Z,9.27
2018-12-22T12:17:59.660Z,11.43
2018-12-22T12:20:27.159Z,12.50
2018-12-22T12:22:54.687Z,10.53
2018-12-22T12:25:22.261Z,15.53
2018-12-22T12:27:49.818Z,11.23
2018-12-22T12:30:17.410Z,14.90
2018-12-22T12:32:44.927Z,10.37
2018-12-22T12:35:12.426Z,11.13
2018-12-22T12:37:39.926Z,14.43
2018-12-22T12:40:13.751Z,12.23
2018-12-22T12:42:41.254Z,9.50
2018-12-22T12:45:12.669Z,12.97
2018-12-22T12:47:41.350Z,14.57
2018-12-22T12:50:15.347Z,17.80
2018-12-22T12:52:42.961Z,13.87
2018-12-22T12:55:11.625Z,18.03
2018-12-22T12:57:39.242Z,12.67
2018-12-22T13:00:13.003Z,12.00
2018-12-22T13:02:40.512Z,11.87
2018-12-22T13:05:09.328Z,15.77
2018-12-22T13:07:37.690Z,20.77
2018-12-22T13:10:09.472Z,16.03
2018-12-22T13:12:41.693Z,16.60
2018-12-22T13:15:11.355Z,13.10
2018-12-22T13:17:38.866Z,14.03
2018-12-22T13:20:10.424Z,18.80
2018-12-22T13:22:37.940Z,21.50
2018-12-22T13:25:06.116Z,13.20
2018-12-22T13:27:33.711Z,15.90
2018-12-22T13:30:01.237Z,20.70
2018-12-22T13:32:28.731Z,14.70
2018-12-22T13:34:56.251Z,14.70
2018-12-22T13:37:23.760Z,15.27
2018-12-22T13:39:51.347Z,20.47
2018-12-22T13:42:40.732Z,20.60
2018-12-22T13:45:11.282Z,22.27
2018-12-22T13:47:38.931Z,14.57
2018-12-22T13:50:12.969Z,15.90
2018-12-22T13:52:40.581Z,14.97
2018-12-22T13:55:09.159Z,10.70
2018-12-22T13:57:40.134Z,20.97
2018-12-22T14:00:14.007Z,17.13
2018-12-22T14:02:41.598Z,20.80
2018-12-22T14:05:12.147Z,12.33
2018-12-22T14:07:39.634Z,12.27
2018-12-22T14:10:12.039Z,17.47
2018-12-22T14:12:39.547Z,17.37
2018-12-22T14:15:13.428Z,27.23
2018-12-22T14:17:43.129Z,16.23
2018-12-22T14:20:10.913Z,14.83
2018-12-22T14:22:38.551Z,12.63
2018-12-22T14:25:11.289Z,14.13
2018-12-22T14:27:38.775Z,12.10
2018-12-22T14:30:11.858Z,13.13
2018-12-22T14:32:39.375Z,12.97
2018-12-22T14:35:14.566Z,10.03
2018-12-22T14:37:42.050Z,11.63
2018-12-22T14:40:11.783Z,15.27
2018-12-22T14:42:39.315Z,14.93
2018-12-22T14:45:13.008Z,16.53
2018-12-22T14:47:41.072Z,10.90
2018-12-22T14:50:12.371Z,20.43
2018-12-22T14:52:40.061Z,12.37
2018-12-22T14:55:11.911Z,21.07
2018-12-22T14:57:44.995Z,19.73
2018-12-22T15:00:15.639Z,14.90
2018-12-22T15:02:53.215Z,22.23
2018-12-22T15:05:20.748Z,21.10
2018-12-22T15:07:48.236Z,17.10
2018-12-22T15:10:15.755Z,22.43
2018-12-22T15:12:43.259Z,25.63
2018-12-22T15:15:11.515Z,20.93
2018-12-22T15:17:41.380Z,20.77
2018-12-22T15:20:17.550Z,19.80
2018-12-22T15:22:45.320Z,20.33
2018-12-22T15:25:15.851Z,20.67
2018-12-22T15:27:43.344Z,21.50
2018-12-22T15:30:13.641Z,22.27
2018-12-22T15:32:44.489Z,19.50
2018-12-22T15:35:10.727Z,23.33
2018-12-22T15:37:38.254Z,26.00
2018-12-22T15:40:10.288Z,22.27
2018-12-22T15:42:37.779Z,28.03
2018-12-22T15:45:17.101Z,17.33
2018-12-22T15:47:45.460Z,22.97
2018-12-22T15:50:17.044Z,19.40
2018-12-22T15:52:44.606Z,21.70
2018-12-22T15:55:12.221Z,28.80
2018-12-22T15:57:39.713Z,17.63
2018-12-22T16:00:11.076Z,28.27
2018-12-22T16:02:38.670Z,24.30
2018-12-22T16:05:10.388Z,21.50
2018-12-22T16:07:40.080Z,15.60
2018-12-22T16:10:15.722Z,24.00
2018-12-22T16:12:43.220Z,22.80
2018-12-22T16:15:19.489Z,19.90
2018-12-22T16:17:47.018Z,21.90
2018-12-22T16:20:14.519Z,20.37
2018-12-22T16:22:47.602Z,23.67
2018-12-22T16:25:15.126Z,19.77
2018-12-22T16:27:42.626Z,18.90
2018-12-22T16:30:19.464Z,25.47
2018-12-22T16:32:46.966Z,15.77
2018-12-22T16:35:14.468Z,17.87
2018-12-22T16:37:42.000Z,18.57
2018-12-22T16:40:12.187Z,29.70
2018-12-22T16:42:40.011Z,28.67
2018-12-22T16:45:23.617Z,22.07
2018-12-22T16:47:51.113Z,24.27
2018-12-22T16:50:18.629Z,16.30
2018-12-22T16:52:46.122Z,17.63
2018-12-22T16:55:15.265Z,20.23
2018-12-22T17:00:51.094Z,20.07
2018-12-22T17:03:18.691Z,19.83
2018-12-22T17:05:46.197Z,18.40
2018-12-22T17:08:14.649Z,27.13
2018-12-22T17:10:42.152Z,19.90
2018-12-22T17:13:10.422Z,21.60
2018-12-22T17:15:38.517Z,18.77
2018-12-22T17:18:06.048Z,22.50
2018-12-22T17:20:34.269Z,22.47
2018-12-22T17:23:17.883Z,17.07
2018-12-22T17:25:49.021Z,24.07
2018-12-22T17:28:16.533Z,21.97
2018-12-22T17:30:44.054Z,20.30
2018-12-22T17:33:18.704Z,22.97
2018-12-22T17:35:41.070Z,19.83
2018-12-22T17:38:08.568Z,17.63
2018-12-22T17:40:37.195Z,22.73
2018-12-22T17:43:04.710Z,20.63
2018-12-22T17:45:32.207Z,20.03
2018-12-22T17:47:59.737Z,21.07
2018-12-22T17:50:27.249Z,19.20
2018-12-22T17:52:54.794Z,17.40
2018-12-22T17:55:22.304Z,20.60
2018-12-22T17:57:49.819Z,18.70
2018-12-22T18:00:17.401Z,21.93
2018-12-22T18:02:46.694Z,15.90
2018-12-22T18:05:14.186Z,19.20
2018-12-22T18:07:41.702Z,21.83
2018-12-22T18:10:11.061Z,16.23
2018-12-22T18:12:38.647Z,22.20
2018-12-22T18:15:21.249Z,20.00
2018-12-22T18:17:48.776Z,25.17
2018-12-22T18:20:16.469Z,24.93
2018-12-22T18:22:43.968Z,13.80
2018-12-22T18:25:16.866Z,18.87
2018-12-22T18:27:44.602Z,18.83
2018-12-22T18:30:12.671Z,22.87
2018-12-22T18:32:41.400Z,11.63
2018-12-22T18:35:10.735Z,17.87
2018-12-22T18:37:38.912Z,29.47
2018-12-22T18:40:11.373Z,18.20
2018-12-22T18:42:38.880Z,15.73
2018-12-22T18:45:09.713Z,23.17
2018-12-22T18:47:37.206Z,20.43
2018-12-22T18:50:08.674Z,18.57
2018-12-22T18:52:36.200Z,24.93
2018-12-22T18:55:05.768Z,14.30
2018-12-22T18:57:33.372Z,18.80
2018-12-22T19:00:00.901Z,25.73
2018-12-22T19:02:28.927Z,21.07
2018-12-22T19:04:56.448Z,18.73
2018-12-22T19:07:34.400Z,21.73
2018-12-22T19:10:01.917Z,25.57
2018-12-22T19:12:29.441Z,20.30
2018-12-22T19:14:56.953Z,20.73
2018-12-22T19:17:24.477Z,20.83
2018-12-22T19:19:52.117Z,25.10
2018-12-22T19:22:19.628Z,15.70
2018-12-22T19:24:47.222Z,18.57
2018-12-22T19:27:14.729Z,16.90
2018-12-22T19:29:42.226Z,20.07
2018-12-22T19:32:09.698Z,22.93
2018-12-22T19:34:37.203Z,17.40
2018-12-22T19:37:05.751Z,20.17
2018-12-22T19:39:33.281Z,16.97
2018-12-22T19:42:00.897Z,15.17
2018-12-22T19:44:28.400Z,16.47
2018-12-22T19:46:55.880Z,20.33
2018-12-22T19:49:23.373Z,21.67
2018-12-22T19:51:51.931Z,14.73
2018-12-22T19:54:19.427Z,18.93
2018-12-22T19:56:46.942Z,16.83
2018-12-22T19:59:14.427Z,18.37
2018-12-22T20:01:42.830Z,16.93
2018-12-22T20:04:10.319Z,22.83
2018-12-22T20:06:37.798Z,16.13
2018-12-22T20:09:05.564Z,16.03
2018-12-22T20:11:33.047Z,18.30
2018-12-22T20:14:03.475Z,14.20
2018-12-22T20:16:30.984Z,15.47
2018-12-22T20:18:58.467Z,15.83
2018-12-22T20:21:25.977Z,15.57
2018-12-22T20:23:53.469Z,16.83
2018-12-22T20:26:20.972Z,13.10
2018-12-22T20:28:48.511Z,17.63
2018-12-22T20:31:16.018Z,16.83
2018-12-22T20:33:43.534Z,17.13
2018-12-22T20:36:11.076Z,12.57
2018-12-22T20:38:40.605Z,15.10
2018-12-22T20:41:08.037Z,13.37
2018-12-22T20:43:35.535Z,19.87
2018-12-22T20:46:03.017Z,12.57
2018-12-22T20:48:30.522Z,15.70
2018-12-22T20:50:58.023Z,12.63
2018-12-22T20:53:25.625Z,20.40
2018-12-22T20:55:53.163Z,12.67
2018-12-22T20:58:21.796Z,18.77
2018-12-22T21:00:49.413Z,13.00
2018-12-22T21:03:19.094Z,13.83
2018-12-22T21:05:49.428Z,15.83
2018-12-22T21:08:16.962Z,10.83
2018-12-22T21:10:44.456Z,17.93
2018-12-22T21:13:11.942Z,16.30
2018-12-22T21:15:39.444Z,15.93
2018-12-22T21:18:06.939Z,14.20
2018-12-22T21:20:36.019Z,14.93
2018-12-22T21:23:04.414Z,13.70
2018-12-22T21:25:31.916Z,16.80
2018-12-22T21:27:59.518Z,12.03
2018-12-22T21:30:27.127Z,15.53
2018-12-22T21:32:54.636Z,15.70
2018-12-22T21:35:22.252Z,16.50
2018-12-22T21:37:51.899Z,15.87
2018-12-22T21:40:19.402Z,17.60
2018-12-22T21:42:47.571Z,18.63
2018-12-22T21:45:16.700Z,21.23
2018-12-22T21:47:44.185Z,18.13
2018-12-22T21:50:12.683Z,13.90
2018-12-22T21:52:40.247Z,15.33
2018-12-22T21:55:07.767Z,18.27
2018-12-22T21:57:35.320Z,18.40
2018-12-22T22:00:03.218Z,17.97
2018-12-22T22:02:30.765Z,15.17
2018-12-22T22:05:00.049Z,14.17
2018-12-22T22:07:27.658Z,15.40
2018-12-22T22:09:55.484Z,11.30
2018-12-22T22:12:22.994Z,12.90
2018-12-22T22:14:50.487Z,24.67
2018-12-22T22:17:17.984Z,16.20
2018-12-22T22:19:45.474Z,14.73
2018-12-22T22:22:12.978Z,17.57
2018-12-22T22:24:40.468Z,17.60
2018-12-22T22:27:08.834Z,11.93
2018-12-22T22:29:36.328Z,16.73
2018-12-22T22:32:03.842Z,18.10
2018-12-22T22:34:31.340Z,15.97
2018-12-22T22:36:58.857Z,11.87
2018-12-22T22:39:26.450Z,18.37
2018-12-22T22:41:54.138Z,12.70
2018-12-22T22:44:21.641Z,14.77
2018-12-22T22:46:49.147Z,13.67
2018-12-22T22:49:24.869Z,16.90
2018-12-22T22:51:52.380Z,16.43
2018-12-22T22:54:19.887Z,13.53
2018-12-22T22:56:47.408Z,17.70
2018-12-22T22:59:14.909Z,20.63
2018-12-22T23:01:42.391Z,14.40
2018-12-22T23:04:09.893Z,18.90
2018-12-22T23:06:37.399Z,17.10
2018-12-22T23:09:05.606Z,21.47
2018-12-22T23:11:40.114Z,16.60
2018-12-22T23:14:07.683Z,16.43
2018-12-22T23:16:35.192Z,17.90
2018-12-22T23:19:02.679Z,14.73
2018-12-22T23:21:30.178Z,12.70
2018-12-22T23:23:57.653Z,24.67
2018-12-22T23:26:25.161Z,16.40
2018-12-22T23:28:52.643Z,17.80
2018-12-22T23:31:20.253Z,15.27
2018-12-22T23:33:48.923Z,16.87
2018-12-22T23:36:16.419Z,14.97
2018-12-22T23:38:43.920Z,15.70
2018-12-22T23:41:11.428Z,14.50
2018-12-22T23:43:38.933Z,14.20
2018-12-22T23:46:06.552Z,15.23
2018-12-22T23:48:34.027Z,14.27
2018-12-22T23:51:01.521Z,14.20
2018-12-22T23:53:28.997Z,16.07
2018-12-22T23:55:57.458Z,16.20
2018-12-22T23:58:25.006Z,20.50
